Time;durP1;ratioP1;P1;durP2;ratioP2;P2;SDS_P1;SDS_P2;PMS_P1;PMS_P2;Temp;Humidity;BMP_temperature;BMP_pressure;BME280_temperature;BME280_humidity;BME280_pressure;Samples;Min_cycle;Max_cycle;Signal;HPM_P1;HPM_P2
2023/06/22 00:01:01;;;;;;;10.02;9.02;;;;;;;20.20;58.58;95408.66;5089869;28;20093;-81
2023/06/22 00:03:27;;;;;;;10.85;9.10;;;;;;;20.22;58.56;95400.56;5089215;28;20024;-81
2023/06/22 00:05:53;;;;;;;11.35;9.20;;;;;;;20.17;58.73;95392.88;5089355;28;20036;-80
2023/06/22 00:08:19;;;;;;;10.82;8.85;;;;;;;20.12;58.88;95399.91;5088557;28;20056;-81
2023/06/22 00:10:45;;;;;;;14.95;9.73;;;;;;;20.17;58.60;95392.88;5088494;28;20030;-80
2023/06/22 00:13:11;;;;;;;10.23;9.23;;;;;;;20.11;58.75;95400.41;5088864;28;20034;-80
2023/06/22 00:15:38;;;;;;;12.85;9.43;;;;;;;20.06;58.96;95398.31;5088446;28;20032;-80
2023/06/22 00:18:05;;;;;;;11.32;9.45;;;;;;;19.98;59.13;95391.63;5088354;28;20082;-79
2023/06/22 00:20:30;;;;;;;10.68;9.30;;;;;;;19.95;58.89;95387.78;5087331;28;20474;-79
2023/06/22 00:22:57;;;;;;;11.07;9.90;;;;;;;19.97;59.04;95382.50;5089086;28;20031;-79
2023/06/22 00:25:22;;;;;;;12.82;10.90;;;;;;;19.91;58.91;95378.09;5086779;28;20043;-80
2023/06/22 00:27:48;;;;;;;13.85;10.63;;;;;;;19.78;59.55;95370.81;5088263;28;20024;-80
2023/06/22 00:30:18;;;;;;;12.85;10.40;;;;;;;19.75;60.00;95374.59;5089458;28;20024;-79
2023/06/22 00:32:44;;;;;;;13.10;10.48;;;;;;;19.77;60.26;95372.09;5088349;28;20047;-81
2023/06/22 00:35:10;;;;;;;11.65;10.45;;;;;;;19.78;60.14;95375.63;5089522;28;20032;-79
2023/06/22 00:37:36;;;;;;;11.95;10.27;;;;;;;19.72;60.32;95374.78;5086900;28;20032;-80
2023/06/22 00:40:04;;;;;;;13.40;11.90;;;;;;;19.73;60.18;95373.56;5088973;28;20147;-80
2023/06/22 00:42:30;;;;;;;12.90;10.45;;;;;;;19.75;60.24;95371.81;5088906;28;20903;-80
2023/06/22 00:44:55;;;;;;;12.02;10.60;;;;;;;19.73;60.63;95371.53;5088279;28;20020;-82
2023/06/22 00:47:21;;;;;;;13.25;10.95;;;;;;;19.70;60.20;95366.91;5089058;28;20032;-80
2023/06/22 00:49:48;;;;;;;15.07;12.38;;;;;;;19.68;60.37;95366.66;5087701;28;20024;-80
2023/06/22 00:52:20;;;;;;;13.57;11.77;;;;;;;19.67;60.78;95370.69;5087689;28;20500;-80
2023/06/22 00:54:48;;;;;;;17.15;12.45;;;;;;;19.65;60.82;95375.22;5088009;28;20464;-80
2023/06/22 00:57:17;;;;;;;14.77;11.60;;;;;;;19.65;60.61;95375.97;5087095;28;20524;-80
2023/06/22 00:59:47;;;;;;;13.45;10.48;;;;;;;19.65;60.92;95386.38;5088666;28;20101;-80
2023/06/22 01:02:13;;;;;;;14.73;11.95;;;;;;;19.64;61.04;95396.75;5086560;28;20051;-79
2023/06/22 01:04:39;;;;;;;13.02;11.30;;;;;;;19.66;60.86;95393.47;5087779;28;20482;-80
2023/06/22 01:07:07;;;;;;;13.10;11.30;;;;;;;19.63;60.78;95390.41;5069202;28;20120;-80
2023/06/22 01:09:35;;;;;;;13.32;10.90;;;;;;;19.62;60.83;95388.88;5088438;28;20082;-80
2023/06/22 01:12:04;;;;;;;13.98;11.43;;;;;;;19.58;61.30;95384.72;5086292;28;20051;-80
2023/06/22 01:14:43;;;;;;;13.68;11.27;;;;;;;19.57;61.11;95386.00;5086793;28;20032;-80
2023/06/22 01:17:09;;;;;;;13.70;10.70;;;;;;;19.55;61.11;95382.91;5088733;28;20081;-79
2023/06/22 01:19:36;;;;;;;13.52;11.25;;;;;;;19.55;61.32;95391.25;5085745;28;20028;-79
2023/06/22 01:22:02;;;;;;;15.18;11.73;;;;;;;19.52;61.46;95383.88;5087339;28;20150;-80
2023/06/22 01:24:38;;;;;;;12.27;10.88;;;;;;;19.49;61.50;95388.38;5085455;28;20098;-80
2023/06/22 01:27:04;;;;;;;13.25;10.48;;;;;;;19.47;60.87;95388.13;5087171;28;20154;-79
2023/06/22 01:29:30;;;;;;;13.15;10.75;;;;;;;19.45;61.12;95398.22;5087336;28;20111;-80
2023/06/22 01:31:57;;;;;;;12.80;10.35;;;;;;;19.43;61.48;95403.50;5088083;28;20106;-80
2023/06/22 01:34:23;;;;;;;12.38;11.07;;;;;;;19.40;61.70;95410.06;5086552;28;20498;-80
2023/06/22 01:36:49;;;;;;;13.20;10.93;;;;;;;19.35;61.67;95406.69;5085397;28;20081;-80
2023/06/22 01:39:15;;;;;;;14.55;11.43;;;;;;;19.32;62.06;95402.06;5086967;28;20019;-80
2023/06/22 01:41:41;;;;;;;12.80;11.07;;;;;;;19.31;61.82;95411.69;5085489;28;20486;-81
2023/06/22 01:44:08;;;;;;;16.30;10.85;;;;;;;19.31;61.84;95400.53;5086894;28;20129;-80
2023/06/22 01:46:35;;;;;;;12.20;10.70;;;;;;;19.29;61.28;95403.06;5086634;28;20038;-80
2023/06/22 01:49:02;;;;;;;14.98;9.90;;;;;;;19.24;61.75;95392.59;5086249;28;20028;-80
2023/06/22 01:51:27;;;;;;;12.88;11.32;;;;;;;19.27;61.92;95404.81;5086116;28;20040;-80
2023/06/22 01:53:53;;;;;;;12.85;10.82;;;;;;;19.23;62.10;95413.34;5086553;28;20483;-76
2023/06/22 01:56:18;;;;;;;13.93;11.38;;;;;;;19.21;62.25;95415.06;5087898;28;20042;-79
2023/06/22 01:58:54;;;;;;;12.27;9.85;;;;;;;19.19;62.21;95417.59;5085044;28;20052;-79
2023/06/22 02:01:25;;;;;;;13.68;10.38;;;;;;;19.12;62.30;95418.75;5069338;28;20036;-80
2023/06/22 02:04:01;;;;;;;11.68;9.90;;;;;;;19.12;62.70;95429.13;5085250;28;20032;-81
2023/06/22 02:06:35;;;;;;;17.65;11.02;;;;;;;19.12;62.82;95427.09;5085463;28;20016;-79
2023/06/22 02:09:02;;;;;;;13.43;11.35;;;;;;;19.12;62.32;95423.56;5087675;28;20039;-79
2023/06/22 02:11:28;;;;;;;14.13;9.98;;;;;;;19.09;62.34;95430.84;5085823;28;20062;-80
2023/06/22 02:13:55;;;;;;;13.52;11.55;;;;;;;19.08;62.33;95420.94;5086293;28;20035;-80
2023/06/22 02:16:20;;;;;;;13.85;10.27;;;;;;;19.06;62.40;95418.66;5084431;28;20486;-80
2023/06/22 02:18:50;;;;;;;11.52;9.75;;;;;;;19.06;61.64;95424.22;5086045;28;20054;-79
2023/06/22 02:21:16;;;;;;;10.27;9.27;;;;;;;19.03;61.33;95418.84;5084850;28;20028;-80
2023/06/22 02:23:42;;;;;;;11.60;9.55;;;;;;;18.97;61.30;95407.59;5086633;28;20116;-80
2023/06/22 02:26:07;;;;;;;12.23;9.63;;;;;;;19.03;61.44;95413.25;5086998;28;20024;-81
2023/06/22 02:28:33;;;;;;;13.45;9.50;;;;;;;19.03;61.38;95416.03;5084406;28;20028;-79
2023/06/22 02:30:58;;;;;;;10.38;9.27;;;;;;;19.03;61.07;95416.03;5087238;28;20024;-78
2023/06/22 02:33:23;;;;;;;12.77;9.98;;;;;;;18.97;61.25;95406.81;5085590;28;20571;-79
2023/06/22 02:35:49;;;;;;;11.95;10.27;;;;;;;19.01;61.17;95410.19;5087305;28;20193;-80
2023/06/22 02:38:14;;;;;;;10.90;9.80;;;;;;;18.98;61.55;95411.94;5084622;28;20737;-80
2023/06/22 02:40:40;;;;;;;11.77;9.52;;;;;;;18.97;61.48;95404.81;5086583;28;20020;-80
2023/06/22 02:43:05;;;;;;;11.48;9.88;;;;;;;18.98;61.75;95414.72;5086583;28;20031;-81
2023/06/22 02:45:31;;;;;;;14.10;10.02;;;;;;;18.96;61.73;95403.28;5085701;28;20577;-79
2023/06/22 02:47:56;;;;;;;13.23;9.88;;;;;;;18.92;61.62;95404.72;5086418;28;20529;-79
2023/06/22 02:50:22;;;;;;;12.60;9.90;;;;;;;18.92;61.75;95399.13;5083699;28;20426;-79
2023/06/22 02:52:47;;;;;;;13.88;10.23;;;;;;;18.93;61.61;95406.28;5086927;28;20028;-80
2023/06/22 02:55:12;;;;;;;11.27;9.20;;;;;;;18.91;61.85;95412.31;5085368;28;20282;-81
2023/06/22 02:57:44;;;;;;;15.30;10.20;;;;;;;18.86;62.05;95410.19;5086250;28;20036;-79
2023/06/22 03:00:17;;;;;;;13.60;10.32;;;;;;;18.90;62.08;95421.91;5086068;28;20103;-79
2023/06/22 03:02:44;;;;;;;14.55;10.40;;;;;;;18.90;62.15;95407.97;5085765;28;20028;-79
2023/06/22 03:05:13;;;;;;;13.55;10.50;;;;;;;18.88;62.17;95409.72;5086748;28;20032;-79
2023/06/22 03:07:39;;;;;;;11.98;9.88;;;;;;;18.75;62.48;95399.66;5084908;28;20099;-80
2023/06/22 03:10:05;;;;;;;12.50;10.07;;;;;;;18.86;62.36;95410.19;5086739;28;20027;-80
2023/06/22 03:12:30;;;;;;;12.02;10.45;;;;;;;18.88;62.14;95418.84;5084928;28;20028;-80
2023/06/22 03:14:56;;;;;;;13.13;9.95;;;;;;;18.86;62.09;95432.47;5086552;28;20107;-80
2023/06/22 03:17:22;;;;;;;14.50;9.98;;;;;;;18.85;61.89;95433.72;5085416;28;20040;-80
2023/06/22 03:19:47;;;;;;;13.95;10.77;;;;;;;18.82;62.25;95437.47;5085940;28;20024;-79
2023/06/22 03:22:14;;;;;;;11.00;9.80;;;;;;;18.86;61.73;95440.06;5086453;28;20028;-80
2023/06/22 03:24:40;;;;;;;15.95;9.63;;;;;;;18.89;61.76;95442.66;5084967;28;20072;-79
2023/06/22 03:27:05;;;;;;;13.20;10.32;;;;;;;18.88;61.51;95446.69;5086824;28;20024;-80
2023/06/22 03:29:31;;;;;;;11.75;9.75;;;;;;;18.88;61.60;95449.50;5084662;28;20039;-80
2023/06/22 03:31:56;;;;;;;12.15;9.48;;;;;;;18.82;61.12;95437.47;5086456;28;20028;-80
2023/06/22 03:34:22;;;;;;;12.13;9.32;;;;;;;18.89;61.26;95450.25;5085219;28;20016;-80
2023/06/22 03:36:47;;;;;;;13.45;9.38;;;;;;;18.87;61.27;95453.53;5084771;28;20563;-80
2023/06/22 03:39:13;;;;;;;12.20;10.23;;;;;;;18.84;61.31;95449.66;5084666;28;20020;-80
2023/06/22 03:41:38;;;;;;;12.25;9.55;;;;;;;18.87;61.28;95456.31;5085131;28;20024;-80
2023/06/22 03:44:04;;;;;;;12.63;11.32;;;;;;;18.84;61.44;95458.03;5086588;28;20035;-78
2023/06/22 03:46:29;;;;;;;12.02;9.95;;;;;;;18.83;61.43;95464.84;5084290;28;20111;-77
2023/06/22 03:48:55;;;;;;;11.30;9.23;;;;;;;18.86;61.25;95465.13;5084931;28;20039;-79
2023/06/22 03:51:20;;;;;;;11.10;9.73;;;;;;;18.86;61.16;95467.91;5083369;28;20028;-78
2023/06/22 03:53:46;;;;;;;12.68;9.02;;;;;;;18.86;61.17;95465.13;5085995;28;20116;-77
2023/06/22 03:56:11;;;;;;;13.38;10.02;;;;;;;18.88;61.00;95469.00;5085149;28;20040;-78
2023/06/22 03:58:42;;;;;;;12.88;9.27;;;;;;;18.87;61.19;95466.66;5085237;28;20067;-78
2023/06/22 04:01:11;;;;;;;12.95;9.38;;;;;;;18.91;61.04;95454.09;5089495;28;20496;-78
2023/06/22 04:03:37;;;;;;;12.50;10.15;;;;;;;18.92;60.89;95461.19;5088235;28;20052;-76
2023/06/22 04:06:02;;;;;;;11.32;10.18;;;;;;;18.95;60.98;95470.63;5089960;28;20078;-79
2023/06/22 04:08:27;;;;;;;14.43;10.48;;;;;;;18.93;60.91;95453.63;5088109;28;20024;-77
2023/06/22 04:10:53;;;;;;;12.10;10.65;;;;;;;18.96;61.00;95447.09;5089786;28;20031;-78
2023/06/22 04:13:19;;;;;;;12.63;10.18;;;;;;;18.99;61.37;95454.50;5088637;28;20474;-78
2023/06/22 04:15:44;;;;;;;12.57;9.77;;;;;;;19.01;61.50;95449.19;5089098;28;20156;-77
2023/06/22 04:18:10;;;;;;;12.75;10.25;;;;;;;19.00;61.46;95451.22;5089378;28;20099;-77
2023/06/22 04:20:36;;;;;;;14.65;10.48;;;;;;;19.00;61.81;95442.88;5086738;28;20116;-86
2023/06/22 04:23:01;;;;;;;12.43;10.32;;;;;;;18.99;61.33;95435.75;5088623;28;20543;-81
2023/06/22 04:25:27;;;;;;;15.95;10.30;;;;;;;19.05;61.28;95444.97;5087622;28;20027;-80
2023/06/22 04:27:52;;;;;;;13.95;10.52;;;;;;;19.08;60.86;95437.66;5089581;28;20027;-79
2023/06/22 04:30:18;;;;;;;15.68;10.80;;;;;;;19.11;60.91;95442.28;5088286;28;20613;-80
2023/06/22 04:32:44;;;;;;;13.38;10.18;;;;;;;19.17;60.72;95447.97;5089056;28;20030;-80
2023/06/22 04:35:10;;;;;;;13.82;10.32;;;;;;;19.19;60.94;95439.88;5087550;28;20025;-80
2023/06/22 04:37:35;;;;;;;11.63;10.30;;;;;;;19.19;60.61;95437.84;5086847;28;20028;-79
2023/06/22 04:40:00;;;;;;;12.35;10.40;;;;;;;19.20;60.50;95442.16;5089385;28;20502;-82
2023/06/22 04:42:26;;;;;;;12.45;10.38;;;;;;;19.23;60.59;95446.78;5087598;28;20418;-81
2023/06/22 04:44:52;;;;;;;13.98;9.90;;;;;;;19.29;60.40;95450.44;5089535;28;20031;-81
2023/06/22 04:47:17;;;;;;;13.13;10.20;;;;;;;19.34;60.25;95457.38;5087801;28;20016;-82
2023/06/22 04:49:43;;;;;;;13.43;10.55;;;;;;;19.39;60.15;95459.47;5087518;28;20056;-77
2023/06/22 04:52:10;;;;;;;13.80;10.98;;;;;;;19.38;60.40;95438.41;5088136;28;20020;-78
2023/06/22 04:54:37;;;;;;;13.82;11.20;;;;;;;19.50;60.56;95458.88;5086679;28;20052;-77
2023/06/22 04:57:04;;;;;;;14.90;11.20;;;;;;;19.56;60.58;95465.31;5087371;28;20418;-78
2023/06/22 04:59:30;;;;;;;12.95;10.02;;;;;;;19.60;60.21;95460.31;5087479;28;20031;-78
2023/06/22 05:01:58;;;;;;;14.82;10.38;;;;;;;19.67;60.41;95459.16;5087833;28;20055;-79
2023/06/22 05:04:24;;;;;;;14.45;10.25;;;;;;;19.70;59.88;95452.63;5086250;28;20016;-79
2023/06/22 05:06:50;;;;;;;12.75;11.00;;;;;;;19.72;60.45;95453.66;5087697;28;20132;-80
2023/06/22 05:09:16;;;;;;;15.45;11.52;;;;;;;19.76;60.30;95456.25;5087612;28;20529;-80
2023/06/22 05:11:41;;;;;;;15.60;11.45;;;;;;;19.87;60.36;95459.97;5086258;28;20084;-79
2023/06/22 05:14:07;;;;;;;14.48;11.07;;;;;;;19.93;60.07;95456.50;5088244;28;20103;-79
2023/06/22 05:16:32;;;;;;;14.13;11.25;;;;;;;19.99;59.94;95458.09;5087128;28;20031;-79
2023/06/22 05:18:58;;;;;;;14.05;10.48;;;;;;;20.04;60.06;95453.88;5088589;28;20070;-80
2023/06/22 05:21:25;;;;;;;14.57;11.13;;;;;;;20.10;59.47;95461.06;5085908;28;20063;-79
2023/06/22 05:23:51;;;;;;;16.08;11.23;;;;;;;20.14;59.51;95458.84;5086485;28;20024;-80
2023/06/22 05:26:18;;;;;;;12.90;10.88;;;;;;;20.17;59.23;95469.00;5087056;28;20024;-80
2023/06/22 05:28:46;;;;;;;14.45;10.25;;;;;;;20.26;58.96;95464.56;5086426;28;20485;-80
2023/06/22 05:31:13;;;;;;;12.77;11.02;;;;;;;20.25;59.20;95463.78;5086336;28;20503;-79
2023/06/22 05:33:39;;;;;;;15.95;10.98;;;;;;;20.35;58.50;95467.97;5087171;28;20028;-80
2023/06/22 05:36:05;;;;;;;11.82;10.55;;;;;;;20.41;58.33;95466.03;5088181;28;20055;-78
2023/06/22 05:38:30;;;;;;;13.30;11.20;;;;;;;20.48;58.58;95470.47;5086379;28;20394;-80
2023/06/22 05:40:56;;;;;;;18.85;11.60;;;;;;;20.55;58.73;95480.44;5088711;28;20150;-79
2023/06/22 05:43:22;;;;;;;15.20;10.95;;;;;;;20.62;58.31;95477.97;5086997;28;20059;-79
2023/06/22 05:45:47;;;;;;;18.92;11.27;;;;;;;20.69;58.14;95479.56;5087767;28;20036;-79
2023/06/22 05:48:13;;;;;;;14.15;11.23;;;;;;;20.76;57.94;95487.53;5086913;28;20609;-80
2023/06/22 05:50:38;;;;;;;14.60;10.85;;;;;;;20.79;57.62;95480.97;5086929;28;20028;-78
2023/06/22 05:53:03;;;;;;;13.23;11.77;;;;;;;20.83;57.75;95481.53;5087472;28;20048;-79
2023/06/22 05:55:29;;;;;;;16.90;11.55;;;;;;;20.92;57.31;95486.94;5086114;28;20052;-80
2023/06/22 05:57:54;;;;;;;18.10;12.13;;;;;;;21.02;57.25;95489.59;5087956;28;20028;-80
2023/06/22 06:00:21;;;;;;;16.13;10.80;;;;;;;21.09;57.21;95491.94;5086243;28;20125;-80
2023/06/22 06:02:49;;;;;;;13.40;11.32;;;;;;;20.92;57.20;95455.44;5087413;28;20023;-80
2023/06/22 06:05:14;;;;;;;24.40;12.35;;;;;;;21.19;56.32;95487.72;5086438;28;20036;-80
2023/06/22 06:07:41;;;;;;;14.70;11.90;;;;;;;21.19;56.43;95484.94;5085837;28;20559;-79
2023/06/22 06:10:07;;;;;;;17.35;12.73;;;;;;;21.26;56.31;95476.09;5085534;28;20115;-79
2023/06/22 06:12:32;;;;;;;15.57;12.32;;;;;;;21.27;56.19;95471.25;5086384;28;20099;-81
2023/06/22 06:14:58;;;;;;;13.93;11.50;;;;;;;21.28;56.18;95470.78;5087467;28;20089;-80
2023/06/22 06:17:23;;;;;;;17.23;11.75;;;;;;;21.35;56.29;95467.56;5085907;28;20028;-81
2023/06/22 06:19:49;;;;;;;14.52;11.38;;;;;;;21.46;56.54;95475.28;5087447;28;20024;-80
2023/06/22 06:22:14;;;;;;;14.48;11.95;;;;;;;21.52;55.95;95473.31;5085945;28;20454;-79
2023/06/22 06:24:39;;;;;;;15.43;12.00;;;;;;;21.57;56.46;95472.59;5086268;28;20024;-82
2023/06/22 06:27:05;;;;;;;16.65;13.45;;;;;;;21.64;56.07;95472.13;5086720;28;20546;-82
2023/06/22 06:29:31;;;;;;;14.32;12.75;;;;;;;21.80;55.98;95476.31;5086682;28;20028;-79
2023/06/22 06:31:57;;;;;;;17.20;12.65;;;;;;;21.93;55.21;95473.84;5086070;28;20020;-79
2023/06/22 06:34:22;;;;;;;15.52;12.77;;;;;;;21.98;55.02;95463.97;5085955;28;20020;-80
2023/06/22 06:36:48;;;;;;;14.70;12.15;;;;;;;22.05;55.44;95473.91;5085533;28;20036;-80
2023/06/22 06:39:13;;;;;;;19.25;13.30;;;;;;;22.21;55.38;95470.50;5084290;28;20028;-81
2023/06/22 06:41:39;;;;;;;14.30;12.18;;;;;;;22.29;54.68;95460.34;5085910;28;20107;-82
2023/06/22 06:44:04;;;;;;;13.45;11.70;;;;;;;22.41;55.04;95458.34;5085882;28;20085;-80
2023/06/22 06:46:30;;;;;;;14.45;11.93;;;;;;;22.54;54.64;95461.47;5086338;28;20030;-79
2023/06/22 06:48:55;;;;;;;14.88;11.90;;;;;;;22.71;54.39;95453.09;5086204;28;20035;-81
2023/06/22 06:51:20;;;;;;;19.80;11.95;;;;;;;22.91;53.89;95446.59;5086012;28;20016;-81
2023/06/22 06:53:46;;;;;;;13.68;11.50;;;;;;;23.09;53.71;95448.91;5086498;28;20027;-80
2023/06/22 06:56:12;;;;;;;13.35;11.93;;;;;;;23.28;53.04;95454.78;5085107;28;20040;-80
2023/06/22 06:58:38;;;;;;;15.70;11.90;;;;;;;23.46;52.18;95445.88;5085202;28;20619;-80
2023/06/22 07:01:04;;;;;;;12.45;11.20;;;;;;;23.61;51.96;95444.84;5084168;28;20048;-80
2023/06/22 07:03:29;;;;;;;12.57;11.07;;;;;;;23.79;51.64;95447.91;5086275;28;20062;-80
2023/06/22 07:05:55;;;;;;;16.05;13.43;;;;;;;23.91;51.10;95447.91;5086214;28;20030;-81
2023/06/22 07:08:20;;;;;;;13.57;12.13;;;;;;;24.09;51.45;95448.13;5085741;28;20384;-81
2023/06/22 07:10:46;;;;;;;13.05;11.40;;;;;;;24.22;51.01;95444.78;5084786;28;20111;-80
2023/06/22 07:13:11;;;;;;;14.93;11.10;;;;;;;24.39;49.52;95453.19;5085370;28;20029;-81
2023/06/22 07:15:37;;;;;;;17.63;14.35;;;;;;;24.48;48.80;95452.88;5085079;28;20146;-80
2023/06/22 07:18:03;;;;;;;15.30;10.65;;;;;;;24.59;49.41;95452.06;5085092;28;20069;-81
2023/06/22 07:20:28;;;;;;;14.82;11.07;;;;;;;24.72;48.47;95455.09;5086246;28;20020;-80
2023/06/22 07:22:54;;;;;;;13.00;10.52;;;;;;;24.79;48.30;95450.97;5085485;28;20016;-80
2023/06/22 07:25:19;;;;;;;15.27;10.45;;;;;;;24.89;47.82;95447.34;5085289;28;20501;-81
2023/06/22 07:27:46;;;;;;;13.20;10.63;;;;;;;24.98;48.41;95454.69;5085594;28;20028;-81
2023/06/22 07:30:12;;;;;;;16.05;11.20;;;;;;;25.08;48.80;95447.50;5084114;28;20421;-81
2023/06/22 07:32:37;;;;;;;14.48;10.10;;;;;;;25.19;47.83;95448.72;5085318;28;20023;-80
2023/06/22 07:35:04;;;;;;;11.88;8.93;;;;;;;25.36;45.55;95449.38;5086702;28;20046;-80
2023/06/22 07:37:30;;;;;;;9.55;8.55;;;;;;;25.43;44.93;95458.00;5090585;28;20023;-80
2023/06/22 07:39:59;;;;;;;11.60;9.40;;;;;;;25.49;45.95;95457.97;5089033;28;20028;-81
2023/06/22 07:42:27;;;;;;;13.23;10.25;;;;;;;25.56;46.49;95460.19;5090299;28;20027;-80
2023/06/22 07:44:53;;;;;;;14.63;10.55;;;;;;;25.64;46.94;95451.97;5089577;28;20031;-80
2023/06/22 07:47:19;;;;;;;11.93;10.65;;;;;;;25.71;47.35;95459.06;5089252;28;20024;-80
2023/06/22 07:49:45;;;;;;;20.38;11.00;;;;;;;25.79;47.38;95460.03;5090214;28;20024;-80
2023/06/22 07:52:11;;;;;;;13.68;9.73;;;;;;;25.99;46.65;95453.97;5088811;28;20058;-80
2023/06/22 07:54:36;;;;;;;15.23;10.85;;;;;;;26.05;46.81;95456.75;5088670;28;20410;-80
2023/06/22 07:57:02;;;;;;;10.85;9.82;;;;;;;26.15;46.54;95458.69;5088750;28;20035;-80
2023/06/22 07:59:27;;;;;;;13.30;10.73;;;;;;;26.24;46.48;95451.16;5090038;28;20032;-80
2023/06/22 08:01:52;;;;;;;11.98;10.75;;;;;;;26.31;46.67;95451.31;5088975;28;20348;-80
2023/06/22 08:04:18;;;;;;;12.85;10.70;;;;;;;26.42;46.64;95448.41;5089621;28;20020;-81
2023/06/22 08:06:43;;;;;;;12.13;10.93;;;;;;;26.57;46.79;95448.00;5089129;28;20048;-80
2023/06/22 08:09:09;;;;;;;11.52;10.07;;;;;;;26.68;46.30;95442.22;5088948;28;20032;-80
2023/06/22 08:11:34;;;;;;;13.15;10.13;;;;;;;26.71;46.41;95429.09;5089824;28;20036;-81
2023/06/22 08:13:59;;;;;;;11.25;10.18;;;;;;;26.89;46.25;95433.97;5088421;28;20093;-81
2023/06/22 08:16:25;;;;;;;10.88;9.73;;;;;;;27.03;46.05;95436.88;5088427;28;20565;-81
2023/06/22 08:18:50;;;;;;;13.18;10.85;;;;;;;27.14;45.15;95431.88;5087201;28;20516;-81
2023/06/22 08:21:16;;;;;;;11.40;10.18;;;;;;;27.18;44.69;95429.50;5089955;28;20024;-81
2023/06/22 08:23:42;;;;;;;13.80;9.27;;;;;;;27.22;45.48;95441.22;5089024;28;20132;-81
2023/06/22 08:26:07;;;;;;;11.25;10.05;;;;;;;27.29;45.64;95430.63;5087778;28;20478;-81
2023/06/22 08:28:33;;;;;;;11.80;10.57;;;;;;;27.32;45.78;95429.56;5089402;28;20032;-81
2023/06/22 08:31:00;;;;;;;12.40;11.00;;;;;;;27.37;45.60;95428.72;5088930;28;20085;-81
2023/06/22 08:33:28;;;;;;;11.15;10.00;;;;;;;27.45;44.10;95430.34;5089669;28;20070;-81
2023/06/22 08:35:55;;;;;;;9.45;8.55;;;;;;;27.47;43.08;95432.63;5088253;28;20116;-81
2023/06/22 08:38:20;;;;;;;9.68;8.77;;;;;;;27.51;43.34;95425.38;5088168;28;20085;-81
2023/06/22 08:40:45;;;;;;;13.20;9.80;;;;;;;27.57;43.45;95425.28;5088455;28;20270;-81
2023/06/22 08:43:11;;;;;;;12.10;9.45;;;;;;;27.67;43.66;95428.47;5089188;28;20036;-81
2023/06/22 08:45:36;;;;;;;9.60;8.65;;;;;;;27.79;42.73;95422.13;5088381;28;20149;-81
2023/06/22 08:48:02;;;;;;;12.98;9.68;;;;;;;27.95;42.02;95428.03;5087338;28;20077;-81
2023/06/22 08:50:27;;;;;;;12.70;10.10;;;;;;;28.04;41.74;95424.75;5087593;28;20023;-79
2023/06/22 08:52:53;;;;;;;9.23;8.43;;;;;;;28.06;41.60;95416.50;5086149;28;20024;-80
2023/06/22 08:55:18;;;;;;;8.93;8.02;;;;;;;28.13;41.81;95409.44;5088999;28;20063;-79
2023/06/22 08:57:44;;;;;;;10.20;8.23;;;;;;;28.15;41.66;95404.75;5086243;28;20510;-80
2023/06/22 09:00:19;;;;;;;10.82;9.50;;;;;;;28.24;41.51;95401.53;5089234;28;20027;-80
2023/06/22 09:02:46;;;;;;;9.50;8.18;;;;;;;28.30;41.71;95404.22;5088157;28;20032;-80
2023/06/22 09:05:11;;;;;;;9.02;8.13;;;;;;;28.38;41.22;95407.19;5087271;28;20030;-80
2023/06/22 09:07:37;;;;;;;10.65;8.63;;;;;;;28.50;41.41;95411.31;5088583;28;20425;-80
2023/06/22 09:10:04;;;;;;;10.27;9.00;;;;;;;28.53;41.81;95404.56;5087461;28;20659;-80
2023/06/22 09:12:30;;;;;;;10.43;9.40;;;;;;;28.64;41.85;95412.06;5088561;28;20114;-81
2023/06/22 09:14:56;;;;;;;9.23;8.00;;;;;;;28.69;40.62;95397.81;5087387;28;20111;-80
2023/06/22 09:17:22;;;;;;;9.30;8.02;;;;;;;28.89;38.87;95404.06;5088493;28;20048;-80
2023/06/22 09:19:48;;;;;;;9.02;8.13;;;;;;;28.97;39.38;95417.03;5085965;28;20151;-81
2023/06/22 09:22:14;;;;;;;10.30;9.02;;;;;;;29.08;39.55;95407.53;5087865;28;20035;-81
2023/06/22 09:24:39;;;;;;;9.00;7.70;;;;;;;29.17;38.90;95409.13;5088101;28;20020;-82
2023/06/22 09:27:05;;;;;;;11.60;7.70;;;;;;;29.25;38.56;95412.81;5087451;28;20116;-81
2023/06/22 09:29:33;;;;;;;9.45;8.27;;;;;;;29.42;38.18;95415.22;5088474;28;20028;-81
2023/06/22 09:31:59;;;;;;;8.93;7.68;;;;;;;29.49;37.58;95414.56;5086625;28;20027;-82
2023/06/22 09:34:24;;;;;;;8.07;7.28;;;;;;;29.59;37.00;95415.59;5088105;28;20016;-81
2023/06/22 09:36:49;;;;;;;8.00;7.22;;;;;;;29.70;37.24;95417.41;5086607;28;20031;-79
2023/06/22 09:39:16;;;;;;;8.60;7.30;;;;;;;29.89;37.68;95417.97;5087995;28;20111;-81
2023/06/22 09:41:42;;;;;;;9.38;8.15;;;;;;;29.98;37.19;95411.00;5087221;28;20020;-81
2023/06/22 09:44:07;;;;;;;8.68;7.78;;;;;;;30.03;37.17;95408.03;5087060;28;20020;-80
2023/06/22 09:46:32;;;;;;;8.57;7.68;;;;;;;30.16;37.31;95407.19;5087667;28;20069;-80
2023/06/22 09:48:58;;;;;;;9.07;7.43;;;;;;;30.28;35.54;95396.31;5086506;28;20059;-80
2023/06/22 09:51:23;;;;;;;7.97;7.28;;;;;;;30.32;36.10;95391.81;5088113;28;20135;-80
2023/06/22 09:53:50;;;;;;;8.57;7.70;;;;;;;30.50;35.97;95390.00;5086154;28;20055;-81
2023/06/22 09:56:15;;;;;;;7.93;7.13;;;;;;;30.63;35.38;95394.81;5087386;28;20450;-81
2023/06/22 09:58:44;;;;;;;8.00;7.10;;;;;;;30.81;34.44;95395.88;5086440;28;20028;-81
2023/06/22 10:01:10;;;;;;;9.13;8.23;;;;;;;30.93;34.57;95400.66;5087149;28;20487;-81
2023/06/22 10:03:36;;;;;;;8.13;7.43;;;;;;;30.96;33.93;95389.47;5085844;28;20028;-80
2023/06/22 10:06:02;;;;;;;8.43;7.15;;;;;;;31.06;34.24;95398.97;5084980;28;20493;-81
2023/06/22 10:08:28;;;;;;;7.88;7.10;;;;;;;31.14;34.60;95389.16;5087971;28;20024;-81
2023/06/22 10:10:53;;;;;;;8.70;7.35;;;;;;;31.24;33.42;95394.28;5084682;28;20035;-80
2023/06/22 10:13:19;;;;;;;8.38;7.57;;;;;;;31.24;32.92;95392.19;5087849;28;20020;-80
2023/06/22 10:15:49;;;;;;;8.05;6.82;;;;;;;31.34;33.48;95390.38;5086308;28;20440;-80
2023/06/22 10:18:16;;;;;;;7.50;6.72;;;;;;;31.39;33.00;95383.00;5087266;28;20494;-80
2023/06/22 10:20:41;;;;;;;8.13;7.32;;;;;;;31.46;33.40;95385.84;5085633;28;20024;-81
2023/06/22 10:23:06;;;;;;;8.70;7.78;;;;;;;31.61;33.75;95376.59;5086612;28;20035;-81
2023/06/22 10:25:32;;;;;;;8.32;7.53;;;;;;;31.83;32.75;95377.16;5087377;28;20060;-82
2023/06/22 10:27:57;;;;;;;8.75;7.45;;;;;;;31.97;32.71;95379.25;5084931;28;20020;-82
2023/06/22 10:30:23;;;;;;;8.23;7.50;;;;;;;32.08;32.14;95380.94;5087441;28;20024;-80
2023/06/22 10:32:48;;;;;;;8.40;7.55;;;;;;;32.16;32.52;95372.41;5086163;28;20024;-82
2023/06/22 10:35:15;;;;;;;8.05;7.28;;;;;;;32.21;32.11;95382.81;5086997;28;20107;-80
2023/06/22 10:37:44;;;;;;;7.57;6.88;;;;;;;32.29;31.81;95372.19;5084575;28;20054;-81
2023/06/22 10:40:12;;;;;;;7.97;7.28;;;;;;;32.41;31.08;95370.47;5067936;28;20101;-81
2023/06/22 10:42:37;;;;;;;7.97;7.20;;;;;;;32.56;30.82;95366.06;5085381;28;20024;-81
2023/06/22 10:45:03;;;;;;;7.63;6.93;;;;;;;32.69;30.73;95369.44;5085524;28;20402;-80
2023/06/22 10:47:28;;;;;;;7.35;6.75;;;;;;;32.76;31.00;95362.19;5085616;28;20017;-80
2023/06/22 10:49:54;;;;;;;7.95;6.75;;;;;;;32.87;30.64;95361.78;5085491;28;20429;-81
2023/06/22 10:52:19;;;;;;;7.82;7.10;;;;;;;32.92;30.59;95357.97;5086915;28;20025;-81
2023/06/22 10:54:44;;;;;;;8.25;7.45;;;;;;;33.00;30.77;95355.84;5085717;28;20127;-81
2023/06/22 10:57:10;;;;;;;7.57;6.60;;;;;;;33.19;29.39;95358.19;5086766;28;20028;-81
2023/06/22 10:59:35;;;;;;;6.75;6.15;;;;;;;33.18;29.18;95355.94;5085941;28;20104;-81
2023/06/22 11:02:02;;;;;;;9.57;6.70;;;;;;;33.24;29.25;95353.63;5085565;28;20027;-81
2023/06/22 11:04:27;;;;;;;9.85;6.85;;;;;;;33.40;28.99;95357.13;5087029;28;20031;-82
2023/06/22 11:06:53;;;;;;;8.90;7.90;;;;;;;33.44;29.98;95352.56;5085219;28;20012;-83
2023/06/22 11:09:20;;;;;;;8.85;7.80;;;;;;;33.58;29.78;95352.28;5086141;28;20032;-80
2023/06/22 11:11:47;;;;;;;7.55;6.60;;;;;;;33.67;29.00;95360.94;5085250;28;20077;-81
2023/06/22 11:14:13;;;;;;;8.10;7.30;;;;;;;33.70;29.33;95351.22;5086217;28;20321;-80
2023/06/22 11:16:38;;;;;;;7.85;7.07;;;;;;;33.82;29.63;95342.94;5085709;28;20524;-81